sensor_id;sensor_type;location;lat;lon;timestamp;pressure;altitude;pressure_sealevel;temperature;humidity
20793;BME280;10556;-33.662;151.094;2024-01-10T00:03:46;99143.38;;;30.51;100.00
20793;BME280;10556;-33.662;151.094;2024-01-10T00:08:48;99134.78;;;31.06;100.00
20793;BME280;10556;-33.662;151.094;2024-01-10T00:13:51;99137.00;;;30.71;100.00
20793;BME280;10556;-33.662;151.094;2024-01-10T00:18:55;99118.06;;;29.99;100.00
20793;BME280;10556;-33.662;151.094;2024-01-10T00:23:58;99123.06;;;32.79;100.00
20793;BME280;10556;-33.662;151.094;2024-01-10T00:29:00;99111.88;;;32.66;100.00
20793;BME280;10556;-33.662;151.094;2024-01-10T00:34:04;99104.59;;;31.58;100.00
20793;BME280;10556;-33.662;151.094;2024-01-10T00:39:07;99123.31;;;30.63;100.00
20793;BME280;10556;-33.662;151.094;2024-01-10T00:44:09;99123.19;;;30.83;100.00
20793;BME280;10556;-33.662;151.094;2024-01-10T00:49:13;99124.34;;;30.93;100.00
20793;BME280;10556;-33.662;151.094;2024-01-10T00:54:16;99126.22;;;29.31;100.00
20793;BME280;10556;-33.662;151.094;2024-01-10T00:59:18;99121.63;;;31.56;100.00
20793;BME280;10556;-33.662;151.094;2024-01-10T01:04:23;99112.25;;;32.51;96.32
20793;BME280;10556;-33.662;151.094;2024-01-10T01:09:25;99121.63;;;31.56;100.00
20793;BME280;10556;-33.662;151.094;2024-01-10T01:14:27;99119.66;;;30.95;100.00
20793;BME280;10556;-33.662;151.094;2024-01-10T01:19:32;99122.75;;;31.42;100.00
20793;BME280;10556;-33.662;151.094;2024-01-10T01:24:34;99117.41;;;30.67;100.00
20793;BME280;10556;-33.662;151.094;2024-01-10T01:29:37;99106.63;;;30.75;100.00
20793;BME280;10556;-33.662;151.094;2024-01-10T01:34:41;99101.53;;;32.16;98.56
20793;BME280;10556;-33.662;151.094;2024-01-10T01:39:44;99086.81;;;31.72;100.00
20793;BME280;10556;-33.662;151.094;2024-01-10T01:44:46;99090.88;;;34.34;83.97
20793;BME280;10556;-33.662;151.094;2024-01-10T01:49:50;99080.13;;;32.54;90.85
20793;BME280;10556;-33.662;151.094;2024-01-10T01:54:53;99089.13;;;33.53;88.32
20793;BME280;10556;-33.662;151.094;2024-01-10T01:59:55;99072.34;;;32.29;93.89
20793;BME280;10556;-33.662;151.094;2024-01-10T02:05:00;99061.00;;;34.67;80.61
20793;BME280;10556;-33.662;151.094;2024-01-10T02:10:03;99059.22;;;32.82;89.79
20793;BME280;10556;-33.662;151.094;2024-01-10T02:15:06;99050.88;;;33.44;84.76
20793;BME280;10556;-33.662;151.094;2024-01-10T02:20:14;99041.69;;;34.99;72.10
20793;BME280;10556;-33.662;151.094;2024-01-10T02:25:18;99031.03;;;34.49;77.08
20793;BME280;10556;-33.662;151.094;2024-01-10T02:30:21;99025.16;;;35.48;73.27
20793;BME280;10556;-33.662;151.094;2024-01-10T02:35:23;99030.16;;;34.44;76.17
20793;BME280;10556;-33.662;151.094;2024-01-10T02:40:27;99022.63;;;32.98;90.92
20793;BME280;10556;-33.662;151.094;2024-01-10T02:45:30;99023.94;;;33.18;93.49
20793;BME280;10556;-33.662;151.094;2024-01-10T02:50:32;99008.50;;;33.04;88.76
20793;BME280;10556;-33.662;151.094;2024-01-10T02:55:37;99010.56;;;32.37;96.59
20793;BME280;10556;-33.662;151.094;2024-01-10T03:00:39;99003.53;;;33.54;87.17
20793;BME280;10556;-33.662;151.094;2024-01-10T03:05:41;99006.53;;;33.57;85.82
20793;BME280;10556;-33.662;151.094;2024-01-10T03:10:46;99003.34;;;34.24;84.63
20793;BME280;10556;-33.662;151.094;2024-01-10T03:15:48;98991.44;;;33.81;83.67
20793;BME280;10556;-33.662;151.094;2024-01-10T03:20:51;98991.16;;;34.23;80.85
20793;BME280;10556;-33.662;151.094;2024-01-10T03:25:56;98995.25;;;33.73;85.79
20793;BME280;10556;-33.662;151.094;2024-01-10T03:30:59;98999.09;;;33.43;92.17
20793;BME280;10556;-33.662;151.094;2024-01-10T03:36:01;98985.31;;;33.06;93.83
20793;BME280;10556;-33.662;151.094;2024-01-10T03:41:05;98979.44;;;34.19;90.80
20793;BME280;10556;-33.662;151.094;2024-01-10T03:46:08;98958.06;;;33.40;92.94
20793;BME280;10556;-33.662;151.094;2024-01-10T03:51:10;98953.56;;;35.26;78.74
20793;BME280;10556;-33.662;151.094;2024-01-10T03:56:15;98948.22;;;33.76;85.69
20793;BME280;10556;-33.662;151.094;2024-01-10T04:01:21;98946.19;;;34.89;80.96
20793;BME280;10556;-33.662;151.094;2024-01-10T04:06:25;98936.63;;;34.55;82.16
20793;BME280;10556;-33.662;151.094;2024-01-10T04:11:29;98926.97;;;35.64;75.07
20793;BME280;10556;-33.662;151.094;2024-01-10T04:16:31;98935.28;;;35.68;71.62
20793;BME280;10556;-33.662;151.094;2024-01-10T04:21:35;98922.03;;;34.69;78.57
20793;BME280;10556;-33.662;151.094;2024-01-10T04:26:39;98916.84;;;33.96;85.04
20793;BME280;10556;-33.662;151.094;2024-01-10T04:31:42;98914.25;;;32.93;97.69
20793;BME280;10556;-33.662;151.094;2024-01-10T04:36:44;98924.97;;;31.25;100.00
20793;BME280;10556;-33.662;151.094;2024-01-10T04:41:49;98925.25;;;29.86;100.00
20793;BME280;10556;-33.662;151.094;2024-01-10T04:46:52;98931.19;;;29.04;100.00
20793;BME280;10556;-33.662;151.094;2024-01-10T04:51:56;98931.00;;;28.34;100.00
20793;BME280;10556;-33.662;151.094;2024-01-10T04:57:00;98924.06;;;28.00;100.00
20793;BME280;10556;-33.662;151.094;2024-01-10T05:02:02;98936.28;;;27.73;100.00
20793;BME280;10556;-33.662;151.094;2024-01-10T05:07:05;98936.47;;;27.65;100.00
20793;BME280;10556;-33.662;151.094;2024-01-10T05:12:16;98938.03;;;27.53;100.00
20793;BME280;10556;-33.662;151.094;2024-01-10T05:17:19;98935.53;;;27.38;100.00
20793;BME280;10556;-33.662;151.094;2024-01-10T05:22:21;98948.72;;;27.23;100.00
20793;BME280;10556;-33.662;151.094;2024-01-10T05:27:26;98946.88;;;27.17;100.00
20793;BME280;10556;-33.662;151.094;2024-01-10T05:32:28;98934.34;;;27.47;100.00
20793;BME280;10556;-33.662;151.094;2024-01-10T05:37:31;98907.72;;;27.85;100.00
20793;BME280;10556;-33.662;151.094;2024-01-10T05:42:35;98899.44;;;27.81;100.00
20793;BME280;10556;-33.662;151.094;2024-01-10T05:47:39;98909.72;;;27.76;100.00
20793;BME280;10556;-33.662;151.094;2024-01-10T05:52:42;98908.25;;;27.60;100.00
20793;BME280;10556;-33.662;151.094;2024-01-10T05:57:48;98899.25;;;27.35;100.00
20793;BME280;10556;-33.662;151.094;2024-01-10T06:02:51;98884.47;;;27.14;100.00
20793;BME280;10556;-33.662;151.094;2024-01-10T06:07:54;98887.31;;;27.19;100.00
20793;BME280;10556;-33.662;151.094;2024-01-10T06:12:58;98882.91;;;27.26;100.00
20793;BME280;10556;-33.662;151.094;2024-01-10T06:18:01;98870.69;;;27.40;100.00
20793;BME280;10556;-33.662;151.094;2024-01-10T06:23:03;98875.81;;;27.20;100.00
20793;BME280;10556;-33.662;151.094;2024-01-10T06:28:08;98868.25;;;27.39;100.00
20793;BME280;10556;-33.662;151.094;2024-01-10T06:33:10;98844.91;;;27.44;100.00
20793;BME280;10556;-33.662;151.094;2024-01-10T06:38:13;98859.13;;;27.21;100.00
20793;BME280;10556;-33.662;151.094;2024-01-10T06:43:17;98865.53;;;27.12;100.00
20793;BME280;10556;-33.662;151.094;2024-01-10T06:48:19;98878.09;;;26.89;100.00
20793;BME280;10556;-33.662;151.094;2024-01-10T06:53:22;98875.94;;;26.43;100.00
20793;BME280;10556;-33.662;151.094;2024-01-10T06:58:26;98896.69;;;26.09;100.00
20793;BME280;10556;-33.662;151.094;2024-01-10T07:03:29;98884.41;;;26.03;100.00
20793;BME280;10556;-33.662;151.094;2024-01-10T07:08:31;98885.13;;;25.97;100.00
20793;BME280;10556;-33.662;151.094;2024-01-10T07:13:36;98882.19;;;25.85;100.00
20793;BME280;10556;-33.662;151.094;2024-01-10T07:18:38;98887.00;;;25.82;100.00
20793;BME280;10556;-33.662;151.094;2024-01-10T07:23:41;98890.59;;;25.81;100.00
20793;BME280;10556;-33.662;151.094;2024-01-10T07:28:45;98902.22;;;25.78;100.00
20793;BME280;10556;-33.662;151.094;2024-01-10T07:33:48;98905.03;;;25.62;100.00
20793;BME280;10556;-33.662;151.094;2024-01-10T07:38:50;98926.13;;;25.60;100.00
20793;BME280;10556;-33.662;151.094;2024-01-10T07:43:54;98940.00;;;25.61;100.00
20793;BME280;10556;-33.662;151.094;2024-01-10T07:48:57;98961.38;;;25.56;100.00
20793;BME280;10556;-33.662;151.094;2024-01-10T07:54:00;98962.66;;;25.46;100.00
20793;BME280;10556;-33.662;151.094;2024-01-10T07:59:05;98961.03;;;25.30;100.00
20793;BME280;10556;-33.662;151.094;2024-01-10T08:04:08;98980.53;;;25.19;100.00
20793;BME280;10556;-33.662;151.094;2024-01-10T08:09:10;98988.63;;;25.25;100.00
20793;BME280;10556;-33.662;151.094;2024-01-10T08:14:15;98992.44;;;25.66;100.00
20793;BME280;10556;-33.662;151.094;2024-01-10T08:19:17;99003.16;;;25.56;100.00
20793;BME280;10556;-33.662;151.094;2024-01-10T08:24:20;99022.72;;;25.38;100.00
20793;BME280;10556;-33.662;151.094;2024-01-10T08:29:24;99010.59;;;25.30;100.00
20793;BME280;10556;-33.662;151.094;2024-01-10T08:34:26;99019.31;;;25.08;100.00
20793;BME280;10556;-33.662;151.094;2024-01-10T08:39:29;99034.47;;;24.59;100.00
20793;BME280;10556;-33.662;151.094;2024-01-10T08:44:35;99039.75;;;24.20;100.00
20793;BME280;10556;-33.662;151.094;2024-01-10T08:49:38;99045.22;;;23.94;100.00
20793;BME280;10556;-33.662;151.094;2024-01-10T08:54:41;99052.59;;;23.74;100.00
20793;BME280;10556;-33.662;151.094;2024-01-10T08:59:46;99054.97;;;23.53;100.00
20793;BME280;10556;-33.662;151.094;2024-01-10T09:04:50;99067.47;;;23.33;100.00
20793;BME280;10556;-33.662;151.094;2024-01-10T09:09:53;99070.25;;;23.08;100.00
20793;BME280;10556;-33.662;151.094;2024-01-10T09:14:57;99090.38;;;22.97;100.00
20793;BME280;10556;-33.662;151.094;2024-01-10T09:20:01;99101.94;;;22.95;100.00
20793;BME280;10556;-33.662;151.094;2024-01-10T09:25:04;99104.84;;;22.84;100.00
20793;BME280;10556;-33.662;151.094;2024-01-10T09:30:11;99094.22;;;22.69;100.00
20793;BME280;10556;-33.662;151.094;2024-01-10T09:35:13;99109.94;;;22.51;100.00
20793;BME280;10556;-33.662;151.094;2024-01-10T09:40:16;99110.75;;;22.52;100.00
20793;BME280;10556;-33.662;151.094;2024-01-10T09:45:22;99098.28;;;22.64;100.00
20793;BME280;10556;-33.662;151.094;2024-01-10T09:50:25;99114.25;;;22.77;100.00
20793;BME280;10556;-33.662;151.094;2024-01-10T09:55:31;99137.66;;;22.85;100.00
20793;BME280;10556;-33.662;151.094;2024-01-10T10:00:39;99109.06;;;22.85;100.00
20793;BME280;10556;-33.662;151.094;2024-01-10T10:05:43;99112.97;;;22.73;100.00
20793;BME280;10556;-33.662;151.094;2024-01-10T10:10:46;99108.34;;;22.67;100.00
20793;BME280;10556;-33.662;151.094;2024-01-10T10:15:58;99113.44;;;22.76;100.00
20793;BME280;10556;-33.662;151.094;2024-01-10T10:21:12;99112.72;;;22.58;100.00
20793;BME280;10556;-33.662;151.094;2024-01-10T10:26:15;99114.94;;;22.45;100.00
20793;BME280;10556;-33.662;151.094;2024-01-10T10:31:20;99113.94;;;22.30;100.00
20793;BME280;10556;-33.662;151.094;2024-01-10T10:36:23;99106.44;;;22.27;100.00
20793;BME280;10556;-33.662;151.094;2024-01-10T10:41:26;99102.69;;;22.21;100.00
20793;BME280;10556;-33.662;151.094;2024-01-10T10:46:33;99093.78;;;22.15;100.00
20793;BME280;10556;-33.662;151.094;2024-01-10T10:51:37;99102.66;;;22.13;100.00
20793;BME280;10556;-33.662;151.094;2024-01-10T10:56:41;99119.72;;;22.15;100.00
20793;BME280;10556;-33.662;151.094;2024-01-10T11:01:47;99129.59;;;22.12;100.00
20793;BME280;10556;-33.662;151.094;2024-01-10T11:06:52;99132.00;;;22.05;100.00
20793;BME280;10556;-33.662;151.094;2024-01-10T11:12:11;99135.06;;;22.01;100.00
20793;BME280;10556;-33.662;151.094;2024-01-10T11:17:51;99139.72;;;21.97;100.00
20793;BME280;10556;-33.662;151.094;2024-01-10T11:23:27;99140.59;;;22.06;100.00
20793;BME280;10556;-33.662;151.094;2024-01-10T11:28:33;99138.19;;;22.12;100.00
20793;BME280;10556;-33.662;151.094;2024-01-10T11:33:42;99140.44;;;22.07;100.00
20793;BME280;10556;-33.662;151.094;2024-01-10T11:38:50;99141.72;;;22.03;100.00
20793;BME280;10556;-33.662;151.094;2024-01-10T11:44:28;99122.56;;;21.96;100.00
20793;BME280;10556;-33.662;151.094;2024-01-10T11:49:34;99131.88;;;21.89;100.00
20793;BME280;10556;-33.662;151.094;2024-01-10T11:54:43;99128.88;;;21.76;100.00
20793;BME280;10556;-33.662;151.094;2024-01-10T11:59:46;99120.06;;;21.69;100.00
20793;BME280;10556;-33.662;151.094;2024-01-10T12:04:52;99122.25;;;21.56;100.00
20793;BME280;10556;-33.662;151.094;2024-01-10T12:09:55;99114.06;;;21.68;100.00
20793;BME280;10556;-33.662;151.094;2024-01-10T12:14:58;99113.50;;;21.83;100.00
20793;BME280;10556;-33.662;151.094;2024-01-10T12:20:02;99126.44;;;21.74;100.00
20793;BME280;10556;-33.662;151.094;2024-01-10T12:25:05;99146.56;;;21.55;100.00
20793;BME280;10556;-33.662;151.094;2024-01-10T12:30:08;99150.13;;;21.54;100.00
20793;BME280;10556;-33.662;151.094;2024-01-10T12:35:13;99147.97;;;21.49;100.00
20793;BME280;10556;-33.662;151.094;2024-01-10T12:40:15;99156.00;;;21.38;100.00
20793;BME280;10556;-33.662;151.094;2024-01-10T12:45:22;99169.78;;;21.39;100.00
20793;BME280;10556;-33.662;151.094;2024-01-10T12:50:26;99177.25;;;21.42;100.00
20793;BME280;10556;-33.662;151.094;2024-01-10T12:55:29;99182.22;;;21.53;100.00
20793;BME280;10556;-33.662;151.094;2024-01-10T13:00:34;99182.06;;;21.54;100.00
20793;BME280;10556;-33.662;151.094;2024-01-10T13:05:57;99189.19;;;21.52;100.00
20793;BME280;10556;-33.662;151.094;2024-01-10T13:11:01;99194.00;;;21.47;100.00
20793;BME280;10556;-33.662;151.094;2024-01-10T13:16:04;99196.59;;;21.47;100.00
20793;BME280;10556;-33.662;151.094;2024-01-10T13:21:09;99192.88;;;21.50;100.00
20793;BME280;10556;-33.662;151.094;2024-01-10T13:26:11;99189.31;;;21.51;100.00
20793;BME280;10556;-33.662;151.094;2024-01-10T13:31:14;99180.44;;;21.53;100.00
20793;BME280;10556;-33.662;151.094;2024-01-10T13:36:18;99176.41;;;21.59;100.00
20793;BME280;10556;-33.662;151.094;2024-01-10T13:41:20;99180.34;;;21.63;100.00
20793;BME280;10556;-33.662;151.094;2024-01-10T13:46:23;99175.97;;;21.63;100.00
20793;BME280;10556;-33.662;151.094;2024-01-10T13:51:27;99172.41;;;21.64;100.00
20793;BME280;10556;-33.662;151.094;2024-01-10T13:56:31;99170.00;;;21.63;100.00
20793;BME280;10556;-33.662;151.094;2024-01-10T14:01:33;99172.72;;;21.61;100.00
20793;BME280;10556;-33.662;151.094;2024-01-10T14:06:38;99167.09;;;21.66;100.00
20793;BME280;10556;-33.662;151.094;2024-01-10T14:11:40;99168.34;;;21.62;100.00
20793;BME280;10556;-33.662;151.094;2024-01-10T14:16:43;99158.97;;;21.69;100.00
20793;BME280;10556;-33.662;151.094;2024-01-10T14:21:47;99142.56;;;21.86;100.00
20793;BME280;10556;-33.662;151.094;2024-01-10T14:26:50;99139.31;;;21.84;100.00
20793;BME280;10556;-33.662;151.094;2024-01-10T14:31:52;99144.13;;;21.79;100.00
20793;BME280;10556;-33.662;151.094;2024-01-10T14:36:57;99135.03;;;21.75;100.00
20793;BME280;10556;-33.662;151.094;2024-01-10T14:41:59;99126.25;;;21.94;100.00
20793;BME280;10556;-33.662;151.094;2024-01-10T14:47:02;99126.25;;;21.94;100.00
20793;BME280;10556;-33.662;151.094;2024-01-10T14:52:06;99117.25;;;21.88;100.00
20793;BME280;10556;-33.662;151.094;2024-01-10T14:57:10;99120.25;;;21.93;100.00
20793;BME280;10556;-33.662;151.094;2024-01-10T15:02:12;99114.59;;;21.98;100.00
20793;BME280;10556;-33.662;151.094;2024-01-10T15:07:17;99110.91;;;22.08;100.00
20793;BME280;10556;-33.662;151.094;2024-01-10T15:12:19;99128.31;;;22.16;100.00
20793;BME280;10556;-33.662;151.094;2024-01-10T15:17:22;99120.38;;;22.26;100.00
20793;BME280;10556;-33.662;151.094;2024-01-10T15:22:26;99114.44;;;22.33;100.00
20793;BME280;10556;-33.662;151.094;2024-01-10T15:27:29;99114.31;;;22.43;100.00
20793;BME280;10556;-33.662;151.094;2024-01-10T15:32:31;99113.97;;;22.46;100.00
20793;BME280;10556;-33.662;151.094;2024-01-10T15:37:35;99114.94;;;22.45;100.00
20793;BME280;10556;-33.662;151.094;2024-01-10T15:42:38;99111.88;;;22.49;100.00
20793;BME280;10556;-33.662;151.094;2024-01-10T15:47:41;99113.63;;;22.41;100.00
20793;BME280;10556;-33.662;151.094;2024-01-10T15:52:45;99101.16;;;22.44;100.00
20793;BME280;10556;-33.662;151.094;2024-01-10T15:57:48;99101.00;;;22.46;100.00
20793;BME280;10556;-33.662;151.094;2024-01-10T16:02:50;99105.06;;;22.48;100.00
20793;BME280;10556;-33.662;151.094;2024-01-10T16:07:55;99107.66;;;22.48;100.00
20793;BME280;10556;-33.662;151.094;2024-01-10T16:12:57;99102.94;;;22.44;100.00
20793;BME280;10556;-33.662;151.094;2024-01-10T16:18:01;99104.88;;;22.42;100.00
20793;BME280;10556;-33.662;151.094;2024-01-10T16:23:05;99096.13;;;22.43;100.00
20793;BME280;10556;-33.662;151.094;2024-01-10T16:28:08;99091.88;;;22.34;100.00
20793;BME280;10556;-33.662;151.094;2024-01-10T16:33:10;99096.56;;;22.30;100.00
20793;BME280;10556;-33.662;151.094;2024-01-10T16:38:14;99097.03;;;22.26;100.00
20793;BME280;10556;-33.662;151.094;2024-01-10T16:43:17;99092.16;;;22.23;100.00
20793;BME280;10556;-33.662;151.094;2024-01-10T16:48:20;99102.06;;;22.27;100.00
20793;BME280;10556;-33.662;151.094;2024-01-10T16:53:24;99101.91;;;22.29;100.00
20793;BME280;10556;-33.662;151.094;2024-01-10T16:58:28;99112.13;;;22.30;100.00
20793;BME280;10556;-33.662;151.094;2024-01-10T17:03:30;99118.47;;;22.28;100.00
20793;BME280;10556;-33.662;151.094;2024-01-10T17:08:35;99132.13;;;22.30;100.00
20793;BME280;10556;-33.662;151.094;2024-01-10T17:13:37;99140.53;;;22.32;100.00
20793;BME280;10556;-33.662;151.094;2024-01-10T17:18:40;99142.19;;;22.33;100.00
20793;BME280;10556;-33.662;151.094;2024-01-10T17:23:45;99145.59;;;22.33;100.00
20793;BME280;10556;-33.662;151.094;2024-01-10T17:28:48;99157.59;;;22.34;100.00
20793;BME280;10556;-33.662;151.094;2024-01-10T17:33:51;99166.38;;;22.33;100.00
20793;BME280;10556;-33.662;151.094;2024-01-10T17:38:55;99161.47;;;22.30;100.00
20793;BME280;10556;-33.662;151.094;2024-01-10T17:43:58;99166.16;;;22.27;100.00
20793;BME280;10556;-33.662;151.094;2024-01-10T17:49:00;99175.91;;;22.25;100.00
20793;BME280;10556;-33.662;151.094;2024-01-10T17:54:05;99179.31;;;22.25;100.00
20793;BME280;10556;-33.662;151.094;2024-01-10T17:59:08;99186.28;;;22.25;100.00
20793;BME280;10556;-33.662;151.094;2024-01-10T18:04:10;99190.50;;;22.26;100.00
20793;BME280;10556;-33.662;151.094;2024-01-10T18:09:15;99202.50;;;22.27;100.00
20793;BME280;10556;-33.662;151.094;2024-01-10T18:14:18;99204.28;;;22.26;100.00
20793;BME280;10556;-33.662;151.094;2024-01-10T18:19:20;99217.28;;;22.26;100.00
20793;BME280;10556;-33.662;151.094;2024-01-10T18:24:25;99217.13;;;22.28;100.00
20793;BME280;10556;-33.662;151.094;2024-01-10T18:29:27;99226.06;;;22.25;100.00
20793;BME280;10556;-33.662;151.094;2024-01-10T18:34:29;99241.41;;;22.18;100.00
20793;BME280;10556;-33.662;151.094;2024-01-10T18:39:34;99236.22;;;22.18;100.00
20793;BME280;10556;-33.662;151.094;2024-01-10T18:44:36;99249.72;;;22.22;100.00
20793;BME280;10556;-33.662;151.094;2024-01-10T18:49:39;99261.59;;;22.25;100.00
20793;BME280;10556;-33.662;151.094;2024-01-10T18:54:43;99263.19;;;22.26;100.00
20793;BME280;10556;-33.662;151.094;2024-01-10T18:59:47;99260.81;;;22.32;100.00
20793;BME280;10556;-33.662;151.094;2024-01-10T19:04:49;99265.69;;;22.35;100.00
20793;BME280;10556;-33.662;151.094;2024-01-10T19:09:54;99278.66;;;22.35;100.00
20793;BME280;10556;-33.662;151.094;2024-01-10T19:14:56;99285.56;;;22.44;100.00
20793;BME280;10556;-33.662;151.094;2024-01-10T19:20:00;99290.13;;;22.50;100.00
20793;BME280;10556;-33.662;151.094;2024-01-10T19:25:05;99298.94;;;22.57;100.00
20793;BME280;10556;-33.662;151.094;2024-01-10T19:30:08;99307.44;;;22.68;100.00
20793;BME280;10556;-33.662;151.094;2024-01-10T19:35:11;99308.94;;;22.70;100.00
20793;BME280;10556;-33.662;151.094;2024-01-10T19:40:15;99323.41;;;22.73;100.00
20793;BME280;10556;-33.662;151.094;2024-01-10T19:45:18;99330.88;;;22.76;100.00
20793;BME280;10556;-33.662;151.094;2024-01-10T19:50:20;99342.47;;;22.81;100.00
20793;BME280;10556;-33.662;151.094;2024-01-10T19:55:24;99343.16;;;22.91;100.00
20793;BME280;10556;-33.662;151.094;2024-01-10T20:00:27;99338.50;;;23.03;100.00
20793;BME280;10556;-33.662;151.094;2024-01-10T20:05:29;99344.44;;;23.21;100.00
20793;BME280;10556;-33.662;151.094;2024-01-10T20:10:33;99356.19;;;23.41;100.00
20793;BME280;10556;-33.662;151.094;2024-01-10T20:15:36;99367.50;;;23.66;100.00
20793;BME280;10556;-33.662;151.094;2024-01-10T20:20:38;99377.81;;;24.00;100.00
20793;BME280;10556;-33.662;151.094;2024-01-10T20:25:43;99386.50;;;24.17;100.00
20793;BME280;10556;-33.662;151.094;2024-01-10T20:30:45;99400.94;;;24.27;100.00
20793;BME280;10556;-33.662;151.094;2024-01-10T20:35:49;99411.53;;;24.42;100.00
20793;BME280;10556;-33.662;151.094;2024-01-10T20:40:56;99419.69;;;24.47;100.00
20793;BME280;10556;-33.662;151.094;2024-01-10T20:45:58;99423.09;;;24.72;100.00
20793;BME280;10556;-33.662;151.094;2024-01-10T20:51:01;99427.81;;;24.93;100.00
20793;BME280;10556;-33.662;151.094;2024-01-10T20:56:06;99438.84;;;25.11;100.00
20793;BME280;10556;-33.662;151.094;2024-01-10T21:01:10;99441.47;;;25.58;100.00
20793;BME280;10556;-33.662;151.094;2024-01-10T21:06:12;99453.28;;;26.08;100.00
20793;BME280;10556;-33.662;151.094;2024-01-10T21:11:17;99455.63;;;26.02;100.00
20793;BME280;10556;-33.662;151.094;2024-01-10T21:16:19;99470.75;;;26.07;100.00
20793;BME280;10556;-33.662;151.094;2024-01-10T21:21:22;99488.31;;;25.90;100.00
20793;BME280;10556;-33.662;151.094;2024-01-10T21:26:26;99492.47;;;25.77;100.00
20793;BME280;10556;-33.662;151.094;2024-01-10T21:31:28;99497.94;;;25.51;100.00
20793;BME280;10556;-33.662;151.094;2024-01-10T21:36:31;99492.31;;;25.15;100.00
20793;BME280;10556;-33.662;151.094;2024-01-10T21:41:35;99508.97;;;25.06;100.00
20793;BME280;10556;-33.662;151.094;2024-01-10T21:46:38;99515.44;;;25.26;100.00
20793;BME280;10556;-33.662;151.094;2024-01-10T21:51:40;99513.41;;;25.69;100.00
20793;BME280;10556;-33.662;151.094;2024-01-10T21:56:44;99523.00;;;26.38;100.00
20793;BME280;10556;-33.662;151.094;2024-01-10T22:01:47;99527.31;;;26.76;100.00
20793;BME280;10556;-33.662;151.094;2024-01-10T22:06:49;99529.47;;;27.48;100.00
20793;BME280;10556;-33.662;151.094;2024-01-10T22:11:54;99537.22;;;27.85;100.00
20793;BME280;10556;-33.662;151.094;2024-01-10T22:16:56;99519.06;;;27.84;100.00
20793;BME280;10556;-33.662;151.094;2024-01-10T22:21:59;99523.31;;;27.70;100.00
20793;BME280;10556;-33.662;151.094;2024-01-10T22:27:05;99515.16;;;27.94;100.00
20793;BME280;10556;-33.662;151.094;2024-01-10T22:32:07;99519.25;;;27.38;100.00
20793;BME280;10556;-33.662;151.094;2024-01-10T22:37:10;99523.06;;;27.65;100.00
20793;BME280;10556;-33.662;151.094;2024-01-10T22:42:14;99518.84;;;28.14;100.00
20793;BME280;10556;-33.662;151.094;2024-01-10T22:47:17;99517.09;;;28.07;100.00
20793;BME280;10556;-33.662;151.094;2024-01-10T22:52:19;99531.03;;;28.07;100.00
20793;BME280;10556;-33.662;151.094;2024-01-10T22:57:23;99522.13;;;29.64;100.00
20793;BME280;10556;-33.662;151.094;2024-01-10T23:02:27;99522.56;;;30.41;100.00
20793;BME280;10556;-33.662;151.094;2024-01-10T23:07:29;99536.19;;;31.94;100.00
20793;BME280;10556;-33.662;151.094;2024-01-10T23:12:34;99542.72;;;31.08;100.00
20793;BME280;10556;-33.662;151.094;2024-01-10T23:17:36;99540.03;;;30.75;100.00
20793;BME280;10556;-33.662;151.094;2024-01-10T23:22:39;99540.47;;;29.57;100.00
20793;BME280;10556;-33.662;151.094;2024-01-10T23:27:45;99549.69;;;28.91;100.00
20793;BME280;10556;-33.662;151.094;2024-01-10T23:32:48;99552.06;;;28.86;100.00
20793;BME280;10556;-33.662;151.094;2024-01-10T23:37:50;99547.31;;;30.80;100.00
20793;BME280;10556;-33.662;151.094;2024-01-10T23:42:54;99545.03;;;34.05;100.00
20793;BME280;10556;-33.662;151.094;2024-01-10T23:47:57;99557.88;;;34.01;100.00
20793;BME280;10556;-33.662;151.094;2024-01-10T23:52:59;99554.97;;;32.87;100.00
20793;BME280;10556;-33.662;151.094;2024-01-10T23:58:04;99546.72;;;33.45;100.00
